Argonne, Wisconsin
Current Conditions -  °F | °C
As of 12:50 PM on Tuesday 27 Jan 2015 (Local Time) from KEGV Reporting Station
Overcast Overcast  
Wind Chill: 24°   Ceiling: 1300
Heat Index: 24°   Visibility: 10mi
Dew Point: 18°   Wind: 3mph
Humidity: 77%   Direction: 200°SSW
Pressure: 30.13"   Gusts: NA
Location:  45.66°N, 88.88°W
Report Text: KEGV 271850Z AUTO 20003KT 10SM BKN013 OVC019 M05/M08 A3013 RMK AO2 T10461080
Loading
Personal Weather Stations






























Interactive Weather Map New forecast layout! Learn more

10-Day Weather Forecast

Advertisements
Track Severe Weather on mobile